Brinckley, Indiana
Current Conditions -  °F | °C
As of 11:53 PM on Monday 26 Jan 2015 (Local Time) from KMIE Reporting Station
Overcast Overcast  
Wind Chill: 21°   Ceiling: 2100
Heat Index: 21°   Visibility: 10mi
Dew Point: 14°   Wind: 3mph
Humidity: 74%   Direction: 140°SE
Pressure: 29.93"   Gusts: NA
Location:  40.2108°N, 85.1197°W
Report Text: KMIE 270453Z AUTO 14003KT 10SM OVC021 M06/M10 A2993 RMK AO2 SLP145 T10611100 410501111
Loading
Personal Weather Stations






























Interactive Weather Map New forecast layout! Learn more

10-Day Weather Forecast

Advertisements
Track Severe Weather on mobile